sensor_id;sensor_type;location;lat;lon;timestamp;temperature;humidity
21255;DHT22;10785;50.674;17.954;2023-10-19T00:01:05;5.40;99.90
21255;DHT22;10785;50.674;17.954;2023-10-19T00:03:36;5.40;99.90
21255;DHT22;10785;50.674;17.954;2023-10-19T00:06:12;5.30;99.90
21255;DHT22;10785;50.674;17.954;2023-10-19T00:08:50;5.30;99.90
21255;DHT22;10785;50.674;17.954;2023-10-19T00:11:26;5.30;99.90
21255;DHT22;10785;50.674;17.954;2023-10-19T00:14:04;5.30;99.90
21255;DHT22;10785;50.674;17.954;2023-10-19T00:16:46;5.30;99.90
21255;DHT22;10785;50.674;17.954;2023-10-19T00:19:29;5.30;99.90
21255;DHT22;10785;50.674;17.954;2023-10-19T00:22:01;5.20;99.90
21255;DHT22;10785;50.674;17.954;2023-10-19T00:24:39;5.20;99.90
21255;DHT22;10785;50.674;17.954;2023-10-19T00:27:13;5.20;99.90
21255;DHT22;10785;50.674;17.954;2023-10-19T00:29:48;5.20;99.90
21255;DHT22;10785;50.674;17.954;2023-10-19T00:32:26;5.10;99.90
21255;DHT22;10785;50.674;17.954;2023-10-19T00:35:00;5.10;99.90
21255;DHT22;10785;50.674;17.954;2023-10-19T00:37:42;5.10;99.90
21255;DHT22;10785;50.674;17.954;2023-10-19T00:40:21;5.10;99.90
21255;DHT22;10785;50.674;17.954;2023-10-19T00:46:13;5.20;99.90
21255;DHT22;10785;50.674;17.954;2023-10-19T00:48:59;5.20;99.90
21255;DHT22;10785;50.674;17.954;2023-10-19T00:51:37;5.20;99.90
21255;DHT22;10785;50.674;17.954;2023-10-19T00:54:29;5.20;99.90
21255;DHT22;10785;50.674;17.954;2023-10-19T00:57:05;5.20;99.90
21255;DHT22;10785;50.674;17.954;2023-10-19T00:59:40;5.10;99.90
21255;DHT22;10785;50.674;17.954;2023-10-19T01:02:17;5.20;99.90
21255;DHT22;10785;50.674;17.954;2023-10-19T01:05:02;5.10;99.90
21255;DHT22;10785;50.674;17.954;2023-10-19T01:07:36;5.00;99.90
21255;DHT22;10785;50.674;17.954;2023-10-19T01:10:12;5.00;99.90
21255;DHT22;10785;50.674;17.954;2023-10-19T01:12:52;5.00;99.90
21255;DHT22;10785;50.674;17.954;2023-10-19T01:15:26;5.00;99.90
21255;DHT22;10785;50.674;17.954;2023-10-19T01:18:01;5.00;99.90
21255;DHT22;10785;50.674;17.954;2023-10-19T01:20:39;5.00;99.90
21255;DHT22;10785;50.674;17.954;2023-10-19T01:23:21;4.90;99.90
21255;DHT22;10785;50.674;17.954;2023-10-19T01:25:59;4.90;99.90
21255;DHT22;10785;50.674;17.954;2023-10-19T01:28:37;4.90;99.90
21255;DHT22;10785;50.674;17.954;2023-10-19T01:31:20;4.90;99.90
21255;DHT22;10785;50.674;17.954;2023-10-19T01:34:10;4.90;99.90
21255;DHT22;10785;50.674;17.954;2023-10-19T01:36:43;4.90;99.90
21255;DHT22;10785;50.674;17.954;2023-10-19T01:39:17;4.90;99.90
21255;DHT22;10785;50.674;17.954;2023-10-19T01:44:42;4.90;99.90
21255;DHT22;10785;50.674;17.954;2023-10-19T01:47:17;4.80;99.90
21255;DHT22;10785;50.674;17.954;2023-10-19T01:49:52;4.80;99.90
21255;DHT22;10785;50.674;17.954;2023-10-19T01:52:29;4.80;99.90
21255;DHT22;10785;50.674;17.954;2023-10-19T01:55:02;4.70;99.90
21255;DHT22;10785;50.674;17.954;2023-10-19T01:57:39;4.70;99.90
21255;DHT22;10785;50.674;17.954;2023-10-19T02:00:14;4.70;99.90
21255;DHT22;10785;50.674;17.954;2023-10-19T02:02:53;4.70;99.90
21255;DHT22;10785;50.674;17.954;2023-10-19T02:05:28;4.70;99.90
21255;DHT22;10785;50.674;17.954;2023-10-19T02:08:09;4.70;99.90
21255;DHT22;10785;50.674;17.954;2023-10-19T02:10:49;4.70;99.90
21255;DHT22;10785;50.674;17.954;2023-10-19T02:13:23;4.70;99.90
21255;DHT22;10785;50.674;17.954;2023-10-19T02:15:56;4.60;99.90
21255;DHT22;10785;50.674;17.954;2023-10-19T02:18:30;4.70;99.90
21255;DHT22;10785;50.674;17.954;2023-10-19T02:21:24;4.70;99.90
21255;DHT22;10785;50.674;17.954;2023-10-19T02:24:01;4.60;99.90
21255;DHT22;10785;50.674;17.954;2023-10-19T02:26:37;4.60;99.90
21255;DHT22;10785;50.674;17.954;2023-10-19T02:29:15;4.60;99.90
21255;DHT22;10785;50.674;17.954;2023-10-19T02:31:52;4.60;99.90
21255;DHT22;10785;50.674;17.954;2023-10-19T02:34:25;4.60;99.90
21255;DHT22;10785;50.674;17.954;2023-10-19T02:37:00;4.60;99.90
21255;DHT22;10785;50.674;17.954;2023-10-19T02:39:32;4.60;99.90
21255;DHT22;10785;50.674;17.954;2023-10-19T02:42:14;4.60;99.90
21255;DHT22;10785;50.674;17.954;2023-10-19T02:44:48;4.70;99.90
21255;DHT22;10785;50.674;17.954;2023-10-19T02:47:24;4.70;99.90
21255;DHT22;10785;50.674;17.954;2023-10-19T02:50:02;4.70;99.90
21255;DHT22;10785;50.674;17.954;2023-10-19T02:52:44;4.70;99.90
21255;DHT22;10785;50.674;17.954;2023-10-19T02:55:19;4.70;99.90
21255;DHT22;10785;50.674;17.954;2023-10-19T02:57:59;4.70;99.90
21255;DHT22;10785;50.674;17.954;2023-10-19T03:00:31;4.80;99.90
21255;DHT22;10785;50.674;17.954;2023-10-19T03:03:05;4.80;99.90
21255;DHT22;10785;50.674;17.954;2023-10-19T03:05:42;4.80;99.90
21255;DHT22;10785;50.674;17.954;2023-10-19T03:08:20;4.90;99.90
21255;DHT22;10785;50.674;17.954;2023-10-19T03:10:56;4.90;99.90
21255;DHT22;10785;50.674;17.954;2023-10-19T03:13:38;5.00;99.90
21255;DHT22;10785;50.674;17.954;2023-10-19T03:16:10;5.00;99.90
21255;DHT22;10785;50.674;17.954;2023-10-19T03:18:44;5.00;99.90
21255;DHT22;10785;50.674;17.954;2023-10-19T03:21:15;5.10;99.90
21255;DHT22;10785;50.674;17.954;2023-10-19T03:23:48;5.10;99.90
21255;DHT22;10785;50.674;17.954;2023-10-19T03:26:25;5.10;99.90
21255;DHT22;10785;50.674;17.954;2023-10-19T03:29:08;5.10;99.90
21255;DHT22;10785;50.674;17.954;2023-10-19T03:31:43;5.20;99.90
21255;DHT22;10785;50.674;17.954;2023-10-19T03:34:19;5.20;99.90
21255;DHT22;10785;50.674;17.954;2023-10-19T03:36:56;5.20;99.90
21255;DHT22;10785;50.674;17.954;2023-10-19T03:39:34;5.30;99.90
21255;DHT22;10785;50.674;17.954;2023-10-19T03:42:08;5.30;99.90
21255;DHT22;10785;50.674;17.954;2023-10-19T03:44:46;5.30;99.90
21255;DHT22;10785;50.674;17.954;2023-10-19T03:47:27;5.40;99.90
21255;DHT22;10785;50.674;17.954;2023-10-19T03:50:05;5.40;99.90
21255;DHT22;10785;50.674;17.954;2023-10-19T03:52:47;5.40;99.90
21255;DHT22;10785;50.674;17.954;2023-10-19T03:55:22;5.40;99.90
21255;DHT22;10785;50.674;17.954;2023-10-19T03:57:59;5.50;99.90
21255;DHT22;10785;50.674;17.954;2023-10-19T04:00:35;5.50;99.90
21255;DHT22;10785;50.674;17.954;2023-10-19T04:03:05;5.50;99.90
21255;DHT22;10785;50.674;17.954;2023-10-19T04:05:35;5.60;99.90
21255;DHT22;10785;50.674;17.954;2023-10-19T04:08:06;5.70;99.90
21255;DHT22;10785;50.674;17.954;2023-10-19T04:10:40;5.70;99.90
21255;DHT22;10785;50.674;17.954;2023-10-19T04:13:15;5.70;99.90
21255;DHT22;10785;50.674;17.954;2023-10-19T04:15:47;5.80;99.90
21255;DHT22;10785;50.674;17.954;2023-10-19T04:18:17;5.80;99.90
21255;DHT22;10785;50.674;17.954;2023-10-19T04:20:47;5.90;99.90
21255;DHT22;10785;50.674;17.954;2023-10-19T04:23:27;5.90;99.90
21255;DHT22;10785;50.674;17.954;2023-10-19T04:25:56;5.90;99.90
21255;DHT22;10785;50.674;17.954;2023-10-19T04:28:26;6.00;99.90
21255;DHT22;10785;50.674;17.954;2023-10-19T04:31:08;6.00;99.90
21255;DHT22;10785;50.674;17.954;2023-10-19T04:33:41;6.00;99.90
21255;DHT22;10785;50.674;17.954;2023-10-19T04:36:14;6.10;99.90
21255;DHT22;10785;50.674;17.954;2023-10-19T04:38:47;6.10;99.90
21255;DHT22;10785;50.674;17.954;2023-10-19T04:41:17;6.10;99.90
21255;DHT22;10785;50.674;17.954;2023-10-19T04:43:47;6.20;99.90
21255;DHT22;10785;50.674;17.954;2023-10-19T04:46:20;6.20;99.90
21255;DHT22;10785;50.674;17.954;2023-10-19T04:48:50;6.20;99.90
21255;DHT22;10785;50.674;17.954;2023-10-19T04:51:19;6.30;99.90
21255;DHT22;10785;50.674;17.954;2023-10-19T04:53:48;6.30;99.90
21255;DHT22;10785;50.674;17.954;2023-10-19T04:56:19;6.40;99.90
21255;DHT22;10785;50.674;17.954;2023-10-19T04:58:48;6.40;99.90
21255;DHT22;10785;50.674;17.954;2023-10-19T05:01:17;6.50;99.90
21255;DHT22;10785;50.674;17.954;2023-10-19T05:03:48;6.50;99.90
21255;DHT22;10785;50.674;17.954;2023-10-19T05:06:18;6.50;99.90
21255;DHT22;10785;50.674;17.954;2023-10-19T05:08:50;6.50;99.90
21255;DHT22;10785;50.674;17.954;2023-10-19T05:11:23;6.50;99.90
21255;DHT22;10785;50.674;17.954;2023-10-19T05:13:56;6.50;99.90
21255;DHT22;10785;50.674;17.954;2023-10-19T05:16:33;6.50;99.90
21255;DHT22;10785;50.674;17.954;2023-10-19T05:19:16;6.50;99.90
21255;DHT22;10785;50.674;17.954;2023-10-19T05:21:51;6.50;99.90
21255;DHT22;10785;50.674;17.954;2023-10-19T05:24:26;6.60;99.90
21255;DHT22;10785;50.674;17.954;2023-10-19T05:27:03;6.60;99.90
21255;DHT22;10785;50.674;17.954;2023-10-19T05:29:40;6.60;99.90
21255;DHT22;10785;50.674;17.954;2023-10-19T05:32:15;6.70;99.90
21255;DHT22;10785;50.674;17.954;2023-10-19T05:34:51;6.70;99.90
21255;DHT22;10785;50.674;17.954;2023-10-19T05:37:25;6.70;99.90
21255;DHT22;10785;50.674;17.954;2023-10-19T05:40:00;6.70;99.90
21255;DHT22;10785;50.674;17.954;2023-10-19T05:42:37;6.70;99.90
21255;DHT22;10785;50.674;17.954;2023-10-19T05:45:14;6.80;99.90
21255;DHT22;10785;50.674;17.954;2023-10-19T05:47:51;6.80;99.90
21255;DHT22;10785;50.674;17.954;2023-10-19T05:50:26;6.90;99.90
21255;DHT22;10785;50.674;17.954;2023-10-19T05:53:00;6.90;99.90
21255;DHT22;10785;50.674;17.954;2023-10-19T05:55:34;6.90;99.90
21255;DHT22;10785;50.674;17.954;2023-10-19T05:58:08;6.90;99.90
21255;DHT22;10785;50.674;17.954;2023-10-19T06:00:46;7.00;99.90
21255;DHT22;10785;50.674;17.954;2023-10-19T06:03:23;7.00;99.90
21255;DHT22;10785;50.674;17.954;2023-10-19T06:06:02;7.00;99.90
21255;DHT22;10785;50.674;17.954;2023-10-19T06:08:37;7.00;99.90
21255;DHT22;10785;50.674;17.954;2023-10-19T06:11:14;7.10;99.90
21255;DHT22;10785;50.674;17.954;2023-10-19T06:13:48;7.10;99.90
21255;DHT22;10785;50.674;17.954;2023-10-19T06:16:23;7.20;99.90
21255;DHT22;10785;50.674;17.954;2023-10-19T06:19:00;7.20;99.90
21255;DHT22;10785;50.674;17.954;2023-10-19T06:21:38;7.20;99.90
21255;DHT22;10785;50.674;17.954;2023-10-19T06:24:13;7.30;99.90
21255;DHT22;10785;50.674;17.954;2023-10-19T06:26:52;7.30;99.90
21255;DHT22;10785;50.674;17.954;2023-10-19T06:29:27;7.40;99.90
21255;DHT22;10785;50.674;17.954;2023-10-19T06:32:03;7.40;99.90
21255;DHT22;10785;50.674;17.954;2023-10-19T06:34:35;7.50;99.90
21255;DHT22;10785;50.674;17.954;2023-10-19T06:37:14;7.50;99.90
21255;DHT22;10785;50.674;17.954;2023-10-19T06:39:51;7.50;99.90
21255;DHT22;10785;50.674;17.954;2023-10-19T06:42:24;7.50;99.90
21255;DHT22;10785;50.674;17.954;2023-10-19T06:44:58;7.50;99.90
21255;DHT22;10785;50.674;17.954;2023-10-19T06:47:31;7.50;99.90
21255;DHT22;10785;50.674;17.954;2023-10-19T06:50:10;7.60;99.90
21255;DHT22;10785;50.674;17.954;2023-10-19T06:52:45;7.60;99.90
21255;DHT22;10785;50.674;17.954;2023-10-19T06:55:24;7.70;99.90
21255;DHT22;10785;50.674;17.954;2023-10-19T06:58:00;7.70;99.90
21255;DHT22;10785;50.674;17.954;2023-10-19T07:00:36;7.80;99.90
21255;DHT22;10785;50.674;17.954;2023-10-19T07:03:16;7.90;99.90
21255;DHT22;10785;50.674;17.954;2023-10-19T07:05:53;7.90;99.90
21255;DHT22;10785;50.674;17.954;2023-10-19T07:08:28;8.00;99.90
21255;DHT22;10785;50.674;17.954;2023-10-19T07:11:02;8.00;99.90
21255;DHT22;10785;50.674;17.954;2023-10-19T07:13:40;8.10;99.90
21255;DHT22;10785;50.674;17.954;2023-10-19T07:16:19;8.20;99.90
21255;DHT22;10785;50.674;17.954;2023-10-19T07:18:58;8.20;99.90
21255;DHT22;10785;50.674;17.954;2023-10-19T07:21:37;8.20;99.90
21255;DHT22;10785;50.674;17.954;2023-10-19T07:24:16;8.30;99.90
21255;DHT22;10785;50.674;17.954;2023-10-19T07:26:55;8.30;99.90
21255;DHT22;10785;50.674;17.954;2023-10-19T07:30:05;8.30;99.90
21255;DHT22;10785;50.674;17.954;2023-10-19T07:32:43;8.30;99.90
21255;DHT22;10785;50.674;17.954;2023-10-19T07:35:23;8.40;99.90
21255;DHT22;10785;50.674;17.954;2023-10-19T07:37:57;8.40;99.90
21255;DHT22;10785;50.674;17.954;2023-10-19T07:40:35;8.40;99.90
21255;DHT22;10785;50.674;17.954;2023-10-19T07:43:07;8.50;99.90
21255;DHT22;10785;50.674;17.954;2023-10-19T07:45:41;8.50;99.90
21255;DHT22;10785;50.674;17.954;2023-10-19T07:48:17;8.50;99.90
21255;DHT22;10785;50.674;17.954;2023-10-19T07:50:51;8.50;99.90
21255;DHT22;10785;50.674;17.954;2023-10-19T07:53:27;8.40;99.90
21255;DHT22;10785;50.674;17.954;2023-10-19T07:56:03;8.40;99.90
21255;DHT22;10785;50.674;17.954;2023-10-19T07:58:41;8.40;99.90
21255;DHT22;10785;50.674;17.954;2023-10-19T08:01:18;8.40;99.90
21255;DHT22;10785;50.674;17.954;2023-10-19T08:03:52;8.30;99.90
21255;DHT22;10785;50.674;17.954;2023-10-19T08:06:29;8.30;99.90
21255;DHT22;10785;50.674;17.954;2023-10-19T08:09:05;8.30;99.90
21255;DHT22;10785;50.674;17.954;2023-10-19T08:11:43;8.30;99.90
21255;DHT22;10785;50.674;17.954;2023-10-19T08:14:15;8.30;99.90
21255;DHT22;10785;50.674;17.954;2023-10-19T08:16:48;8.30;99.90
21255;DHT22;10785;50.674;17.954;2023-10-19T08:19:25;8.30;99.90
21255;DHT22;10785;50.674;17.954;2023-10-19T08:22:02;8.30;99.90
21255;DHT22;10785;50.674;17.954;2023-10-19T08:24:37;8.30;99.90
21255;DHT22;10785;50.674;17.954;2023-10-19T08:27:16;8.30;99.90
21255;DHT22;10785;50.674;17.954;2023-10-19T08:29:55;8.30;99.90
21255;DHT22;10785;50.674;17.954;2023-10-19T08:32:33;8.20;99.90
21255;DHT22;10785;50.674;17.954;2023-10-19T08:35:08;8.10;99.90
21255;DHT22;10785;50.674;17.954;2023-10-19T08:38:06;8.10;99.90
21255;DHT22;10785;50.674;17.954;2023-10-19T08:41:09;8.10;99.90
21255;DHT22;10785;50.674;17.954;2023-10-19T08:46:31;8.10;99.90
21255;DHT22;10785;50.674;17.954;2023-10-19T08:49:08;8.10;99.90
21255;DHT22;10785;50.674;17.954;2023-10-19T08:51:45;8.10;99.90
21255;DHT22;10785;50.674;17.954;2023-10-19T08:54:21;8.10;99.90
21255;DHT22;10785;50.674;17.954;2023-10-19T08:56:59;8.10;99.90
21255;DHT22;10785;50.674;17.954;2023-10-19T08:59:35;8.10;99.90
21255;DHT22;10785;50.674;17.954;2023-10-19T09:02:13;8.10;99.90
21255;DHT22;10785;50.674;17.954;2023-10-19T09:04:48;8.10;99.90
21255;DHT22;10785;50.674;17.954;2023-10-19T09:07:23;8.20;99.90
21255;DHT22;10785;50.674;17.954;2023-10-19T09:10:04;8.30;99.90
21255;DHT22;10785;50.674;17.954;2023-10-19T09:12:42;8.40;99.90
21255;DHT22;10785;50.674;17.954;2023-10-19T09:15:22;8.50;99.90
21255;DHT22;10785;50.674;17.954;2023-10-19T09:17:58;8.60;99.90
21255;DHT22;10785;50.674;17.954;2023-10-19T09:20:46;8.60;99.90
21255;DHT22;10785;50.674;17.954;2023-10-19T09:23:26;8.70;99.90
21255;DHT22;10785;50.674;17.954;2023-10-19T09:26:01;8.70;99.90
21255;DHT22;10785;50.674;17.954;2023-10-19T09:28:36;8.80;99.90
21255;DHT22;10785;50.674;17.954;2023-10-19T09:31:10;8.80;99.90
21255;DHT22;10785;50.674;17.954;2023-10-19T09:36:31;8.90;99.90
21255;DHT22;10785;50.674;17.954;2023-10-19T09:39:04;8.90;99.90
21255;DHT22;10785;50.674;17.954;2023-10-19T09:41:42;8.90;99.90
21255;DHT22;10785;50.674;17.954;2023-10-19T09:44:21;9.00;99.90
21255;DHT22;10785;50.674;17.954;2023-10-19T09:46:57;9.00;99.90
21255;DHT22;10785;50.674;17.954;2023-10-19T09:49:31;9.10;99.90
21255;DHT22;10785;50.674;17.954;2023-10-19T09:52:07;9.10;99.90
21255;DHT22;10785;50.674;17.954;2023-10-19T09:54:54;9.10;99.90
21255;DHT22;10785;50.674;17.954;2023-10-19T09:57:35;9.20;99.90
21255;DHT22;10785;50.674;17.954;2023-10-19T10:00:13;9.10;99.90
21255;DHT22;10785;50.674;17.954;2023-10-19T10:02:57;9.20;99.90
21255;DHT22;10785;50.674;17.954;2023-10-19T10:05:47;9.30;99.90
21255;DHT22;10785;50.674;17.954;2023-10-19T10:08:31;9.30;99.90
21255;DHT22;10785;50.674;17.954;2023-10-19T10:11:22;9.40;99.90
21255;DHT22;10785;50.674;17.954;2023-10-19T10:13:58;9.40;99.90
21255;DHT22;10785;50.674;17.954;2023-10-19T10:16:34;9.30;99.90
21255;DHT22;10785;50.674;17.954;2023-10-19T10:19:08;9.40;99.90
21255;DHT22;10785;50.674;17.954;2023-10-19T10:22:04;9.40;99.90
21255;DHT22;10785;50.674;17.954;2023-10-19T10:24:46;9.40;99.90
21255;DHT22;10785;50.674;17.954;2023-10-19T10:27:24;9.50;99.90
21255;DHT22;10785;50.674;17.954;2023-10-19T10:29:59;9.50;99.90
21255;DHT22;10785;50.674;17.954;2023-10-19T10:32:49;9.40;99.90
21255;DHT22;10785;50.674;17.954;2023-10-19T10:35:53;9.40;99.90
21255;DHT22;10785;50.674;17.954;2023-10-19T10:38:34;9.40;99.90
21255;DHT22;10785;50.674;17.954;2023-10-19T10:41:19;9.40;99.90
21255;DHT22;10785;50.674;17.954;2023-10-19T10:43:59;9.40;99.90
21255;DHT22;10785;50.674;17.954;2023-10-19T10:46:34;9.60;99.90
21255;DHT22;10785;50.674;17.954;2023-10-19T10:49:08;9.50;99.90
21255;DHT22;10785;50.674;17.954;2023-10-19T10:51:45;9.60;99.90
21255;DHT22;10785;50.674;17.954;2023-10-19T10:54:30;9.60;99.90
21255;DHT22;10785;50.674;17.954;2023-10-19T10:57:07;9.60;99.90
21255;DHT22;10785;50.674;17.954;2023-10-19T10:59:45;9.50;99.90
21255;DHT22;10785;50.674;17.954;2023-10-19T11:02:18;9.50;99.90
21255;DHT22;10785;50.674;17.954;2023-10-19T11:05:16;9.50;99.90
21255;DHT22;10785;50.674;17.954;2023-10-19T11:08:08;9.60;99.90
21255;DHT22;10785;50.674;17.954;2023-10-19T11:10:49;9.50;99.90
21255;DHT22;10785;50.674;17.954;2023-10-19T11:13:28;9.40;99.90
21255;DHT22;10785;50.674;17.954;2023-10-19T11:16:05;9.50;99.90
21255;DHT22;10785;50.674;17.954;2023-10-19T11:18:42;9.50;99.90
21255;DHT22;10785;50.674;17.954;2023-10-19T11:21:23;9.40;99.90
21255;DHT22;10785;50.674;17.954;2023-10-19T11:24:00;9.40;99.90
21255;DHT22;10785;50.674;17.954;2023-10-19T11:26:41;9.40;99.90
21255;DHT22;10785;50.674;17.954;2023-10-19T11:29:21;9.30;99.90
21255;DHT22;10785;50.674;17.954;2023-10-19T11:32:00;9.30;99.90
21255;DHT22;10785;50.674;17.954;2023-10-19T11:34:32;9.30;99.90
21255;DHT22;10785;50.674;17.954;2023-10-19T11:37:04;9.40;99.90
21255;DHT22;10785;50.674;17.954;2023-10-19T11:39:40;9.40;99.90
21255;DHT22;10785;50.674;17.954;2023-10-19T11:42:13;9.50;99.90
21255;DHT22;10785;50.674;17.954;2023-10-19T11:44:53;9.40;99.90
21255;DHT22;10785;50.674;17.954;2023-10-19T11:47:27;9.40;99.90
21255;DHT22;10785;50.674;17.954;2023-10-19T11:50:04;9.50;99.90
21255;DHT22;10785;50.674;17.954;2023-10-19T11:52:40;9.50;99.90
21255;DHT22;10785;50.674;17.954;2023-10-19T11:55:20;9.40;99.90
21255;DHT22;10785;50.674;17.954;2023-10-19T11:57:58;9.40;99.90
21255;DHT22;10785;50.674;17.954;2023-10-19T12:00:36;9.50;99.90
21255;DHT22;10785;50.674;17.954;2023-10-19T12:03:14;9.50;99.90
21255;DHT22;10785;50.674;17.954;2023-10-19T12:05:52;9.50;99.90
21255;DHT22;10785;50.674;17.954;2023-10-19T12:08:30;9.50;99.90
21255;DHT22;10785;50.674;17.954;2023-10-19T12:11:05;9.40;99.90
21255;DHT22;10785;50.674;17.954;2023-10-19T12:13:48;9.40;99.90
21255;DHT22;10785;50.674;17.954;2023-10-19T12:16:27;9.40;99.90
21255;DHT22;10785;50.674;17.954;2023-10-19T12:19:04;9.40;99.90
21255;DHT22;10785;50.674;17.954;2023-10-19T12:21:38;9.40;99.90
21255;DHT22;10785;50.674;17.954;2023-10-19T12:24:13;9.50;99.90
21255;DHT22;10785;50.674;17.954;2023-10-19T12:26:52;9.50;99.90
21255;DHT22;10785;50.674;17.954;2023-10-19T12:29:27;9.50;99.90
21255;DHT22;10785;50.674;17.954;2023-10-19T12:32:07;9.60;99.90
21255;DHT22;10785;50.674;17.954;2023-10-19T12:34:47;9.60;99.90
21255;DHT22;10785;50.674;17.954;2023-10-19T12:37:27;9.70;99.90
21255;DHT22;10785;50.674;17.954;2023-10-19T12:40:00;9.80;99.90
21255;DHT22;10785;50.674;17.954;2023-10-19T12:42:54;9.90;99.90
21255;DHT22;10785;50.674;17.954;2023-10-19T12:45:33;9.90;99.90
21255;DHT22;10785;50.674;17.954;2023-10-19T12:48:12;9.90;99.90
21255;DHT22;10785;50.674;17.954;2023-10-19T12:50:45;9.90;99.90
21255;DHT22;10785;50.674;17.954;2023-10-19T12:53:22;9.90;99.90
21255;DHT22;10785;50.674;17.954;2023-10-19T12:55:56;10.00;99.90
21255;DHT22;10785;50.674;17.954;2023-10-19T12:58:32;10.10;99.90
21255;DHT22;10785;50.674;17.954;2023-10-19T13:01:05;10.10;99.90
21255;DHT22;10785;50.674;17.954;2023-10-19T13:03:51;10.10;99.90
21255;DHT22;10785;50.674;17.954;2023-10-19T13:06:25;10.00;99.90
21255;DHT22;10785;50.674;17.954;2023-10-19T13:09:02;10.10;99.90
21255;DHT22;10785;50.674;17.954;2023-10-19T13:11:35;10.00;99.90
21255;DHT22;10785;50.674;17.954;2023-10-19T13:14:08;10.00;99.90
21255;DHT22;10785;50.674;17.954;2023-10-19T13:16:43;10.00;99.90
21255;DHT22;10785;50.674;17.954;2023-10-19T13:19:17;10.00;99.90
21255;DHT22;10785;50.674;17.954;2023-10-19T13:21:55;10.00;99.90
21255;DHT22;10785;50.674;17.954;2023-10-19T13:24:35;10.10;99.90
21255;DHT22;10785;50.674;17.954;2023-10-19T13:27:13;10.00;99.90
21255;DHT22;10785;50.674;17.954;2023-10-19T13:29:50;10.10;99.90
21255;DHT22;10785;50.674;17.954;2023-10-19T13:32:29;10.10;99.90
21255;DHT22;10785;50.674;17.954;2023-10-19T13:35:04;10.10;99.90
21255;DHT22;10785;50.674;17.954;2023-10-19T13:37:36;10.10;99.90
21255;DHT22;10785;50.674;17.954;2023-10-19T13:40:11;10.10;99.90
21255;DHT22;10785;50.674;17.954;2023-10-19T13:42:50;10.10;99.90
21255;DHT22;10785;50.674;17.954;2023-10-19T13:45:44;10.10;99.90
21255;DHT22;10785;50.674;17.954;2023-10-19T13:48:18;10.00;99.90
21255;DHT22;10785;50.674;17.954;2023-10-19T13:50:55;10.00;99.90
21255;DHT22;10785;50.674;17.954;2023-10-19T13:53:38;10.10;99.90
21255;DHT22;10785;50.674;17.954;2023-10-19T13:56:13;10.00;99.90
21255;DHT22;10785;50.674;17.954;2023-10-19T13:58:51;10.00;99.90
21255;DHT22;10785;50.674;17.954;2023-10-19T14:01:24;10.00;99.90
21255;DHT22;10785;50.674;17.954;2023-10-19T14:03:58;10.00;99.90
21255;DHT22;10785;50.674;17.954;2023-10-19T14:06:34;9.90;99.90
21255;DHT22;10785;50.674;17.954;2023-10-19T14:09:03;9.90;99.90
21255;DHT22;10785;50.674;17.954;2023-10-19T14:11:33;9.90;99.90
21255;DHT22;10785;50.674;17.954;2023-10-19T14:14:05;9.90;99.90
21255;DHT22;10785;50.674;17.954;2023-10-19T14:16:34;9.90;99.90
21255;DHT22;10785;50.674;17.954;2023-10-19T14:19:04;9.90;99.90
21255;DHT22;10785;50.674;17.954;2023-10-19T14:21:34;9.90;99.90
21255;DHT22;10785;50.674;17.954;2023-10-19T14:24:08;9.90;99.90
21255;DHT22;10785;50.674;17.954;2023-10-19T14:26:37;9.90;99.90
21255;DHT22;10785;50.674;17.954;2023-10-19T14:29:08;9.90;99.90
21255;DHT22;10785;50.674;17.954;2023-10-19T14:31:38;9.90;99.90
21255;DHT22;10785;50.674;17.954;2023-10-19T14:34:07;9.90;99.90
21255;DHT22;10785;50.674;17.954;2023-10-19T14:36:38;9.90;99.90
21255;DHT22;10785;50.674;17.954;2023-10-19T14:39:07;9.90;99.90
21255;DHT22;10785;50.674;17.954;2023-10-19T14:41:37;9.80;99.90
21255;DHT22;10785;50.674;17.954;2023-10-19T14:44:06;9.90;99.90
21255;DHT22;10785;50.674;17.954;2023-10-19T14:46:35;9.80;99.90
21255;DHT22;10785;50.674;17.954;2023-10-19T14:49:05;9.80;99.90
21255;DHT22;10785;50.674;17.954;2023-10-19T14:51:34;9.80;99.90
21255;DHT22;10785;50.674;17.954;2023-10-19T14:54:05;9.80;99.90
21255;DHT22;10785;50.674;17.954;2023-10-19T14:56:34;9.80;99.90
21255;DHT22;10785;50.674;17.954;2023-10-19T14:59:05;9.80;99.90
21255;DHT22;10785;50.674;17.954;2023-10-19T15:01:36;9.80;99.90
21255;DHT22;10785;50.674;17.954;2023-10-19T15:04:07;9.80;99.90
21255;DHT22;10785;50.674;17.954;2023-10-19T15:06:37;9.80;99.90
21255;DHT22;10785;50.674;17.954;2023-10-19T15:09:10;9.80;99.90
21255;DHT22;10785;50.674;17.954;2023-10-19T15:11:51;9.80;99.90
21255;DHT22;10785;50.674;17.954;2023-10-19T15:14:22;9.80;99.90
21255;DHT22;10785;50.674;17.954;2023-10-19T15:16:53;9.80;99.90
21255;DHT22;10785;50.674;17.954;2023-10-19T15:19:22;9.80;99.90
21255;DHT22;10785;50.674;17.954;2023-10-19T15:21:55;9.70;99.90
21255;DHT22;10785;50.674;17.954;2023-10-19T15:24:34;9.70;99.90
21255;DHT22;10785;50.674;17.954;2023-10-19T15:27:09;9.70;99.90
21255;DHT22;10785;50.674;17.954;2023-10-19T15:29:49;9.70;99.90
21255;DHT22;10785;50.674;17.954;2023-10-19T15:32:27;9.70;99.90
21255;DHT22;10785;50.674;17.954;2023-10-19T15:35:10;9.70;99.90
21255;DHT22;10785;50.674;17.954;2023-10-19T15:37:51;9.70;99.90
21255;DHT22;10785;50.674;17.954;2023-10-19T15:40:31;9.70;99.90
21255;DHT22;10785;50.674;17.954;2023-10-19T15:43:10;9.70;99.90
21255;DHT22;10785;50.674;17.954;2023-10-19T15:45:42;9.70;99.90
21255;DHT22;10785;50.674;17.954;2023-10-19T15:48:16;9.70;99.90
21255;DHT22;10785;50.674;17.954;2023-10-19T15:50:59;9.70;99.90
21255;DHT22;10785;50.674;17.954;2023-10-19T15:53:42;9.70;99.90
21255;DHT22;10785;50.674;17.954;2023-10-19T15:56:25;9.70;99.90
21255;DHT22;10785;50.674;17.954;2023-10-19T15:59:06;9.60;99.90
21255;DHT22;10785;50.674;17.954;2023-10-19T16:01:47;9.60;99.90
21255;DHT22;10785;50.674;17.954;2023-10-19T16:04:29;9.60;99.90
21255;DHT22;10785;50.674;17.954;2023-10-19T16:07:01;9.60;99.90
21255;DHT22;10785;50.674;17.954;2023-10-19T16:09:43;9.60;99.90
21255;DHT22;10785;50.674;17.954;2023-10-19T16:12:34;9.60;99.90
21255;DHT22;10785;50.674;17.954;2023-10-19T16:15:11;9.60;99.90
21255;DHT22;10785;50.674;17.954;2023-10-19T16:17:46;9.60;99.90
21255;DHT22;10785;50.674;17.954;2023-10-19T16:20:20;9.60;99.90
21255;DHT22;10785;50.674;17.954;2023-10-19T16:22:52;9.60;99.90
21255;DHT22;10785;50.674;17.954;2023-10-19T16:25:25;9.60;99.90
21255;DHT22;10785;50.674;17.954;2023-10-19T16:28:05;9.60;99.90
21255;DHT22;10785;50.674;17.954;2023-10-19T16:30:40;9.60;99.90
21255;DHT22;10785;50.674;17.954;2023-10-19T16:33:16;9.60;99.90
21255;DHT22;10785;50.674;17.954;2023-10-19T16:35:47;9.60;99.90
21255;DHT22;10785;50.674;17.954;2023-10-19T16:38:37;9.60;99.90
21255;DHT22;10785;50.674;17.954;2023-10-19T16:41:16;9.70;99.90